createdAt,value
2023-03-01T00:00:18.673Z,23.40
2023-03-01T00:02:48.432Z,27.58
2023-03-01T00:05:18.307Z,23.50
2023-03-01T00:07:48.044Z,25.80
2023-03-01T00:10:20.666Z,26.33
2023-03-01T00:12:50.465Z,21.27
2023-03-01T00:15:20.373Z,27.15
2023-03-01T00:17:50.158Z,23.45
2023-03-01T00:20:20.340Z,22.30
2023-03-01T00:22:50.278Z,24.13
2023-03-01T00:25:22.754Z,25.98
2023-03-01T00:27:52.569Z,27.42
2023-03-01T00:30:22.620Z,28.23
2023-03-01T00:32:52.384Z,25.63
2023-03-01T00:35:23.911Z,25.90
2023-03-01T00:37:58.663Z,27.25
2023-03-01T00:40:32.105Z,24.55
2023-03-01T00:43:02.212Z,24.30
2023-03-01T00:45:32.353Z,24.38
2023-03-01T00:48:02.192Z,28.73
2023-03-01T00:50:32.387Z,28.13
2023-03-01T00:53:02.162Z,23.35
2023-03-01T00:55:34.719Z,23.45
2023-03-01T00:58:04.461Z,27.55
2023-03-01T01:00:34.771Z,24.35
2023-03-01T01:03:04.535Z,23.60
2023-03-01T01:05:34.315Z,27.48
2023-03-01T01:08:04.087Z,27.10
2023-03-01T01:10:37.453Z,29.50
2023-03-01T01:13:07.804Z,24.30
2023-03-01T01:15:38.323Z,27.48
2023-03-01T01:18:08.151Z,24.85
2023-03-01T01:20:39.474Z,26.88
2023-03-01T01:23:10.250Z,25.88
2023-03-01T01:25:42.622Z,30.23
2023-03-01T01:28:12.431Z,25.60
2023-03-01T01:30:42.176Z,28.27
2023-03-01T01:33:11.919Z,26.35
2023-03-01T01:35:41.739Z,25.15
2023-03-01T01:38:11.531Z,27.48
2023-03-01T01:40:50.272Z,26.75
2023-03-01T01:43:27.486Z,26.50
2023-03-01T01:46:00.831Z,26.83
2023-03-01T01:48:41.342Z,28.08
2023-03-01T01:51:15.440Z,28.10
2023-03-01T01:53:48.196Z,25.48
2023-03-01T01:56:22.292Z,27.30
2023-03-01T01:58:53.018Z,28.67
2023-03-01T02:01:23.243Z,26.23
2023-03-01T02:03:53.085Z,27.10
2023-03-01T02:06:30.934Z,27.33
2023-03-01T02:09:03.757Z,29.33
2023-03-01T02:11:38.638Z,23.10
2023-03-01T02:14:09.630Z,29.75
2023-03-01T02:16:39.494Z,27.90
2023-03-01T02:19:10.464Z,30.45
2023-03-01T02:21:50.826Z,29.15
2023-03-01T02:24:29.388Z,25.00
2023-03-01T02:27:02.387Z,26.67
2023-03-01T02:29:34.943Z,27.17
2023-03-01T02:32:05.074Z,27.40
2023-03-01T02:34:36.216Z,32.50
2023-03-01T02:37:08.695Z,27.80
2023-03-01T02:39:43.578Z,28.58
2023-03-01T02:42:17.041Z,26.10
2023-03-01T02:44:49.790Z,27.90
2023-03-01T02:47:19.602Z,28.65
2023-03-01T02:49:49.360Z,27.77
2023-03-01T02:52:42.174Z,27.55
2023-03-01T02:55:14.233Z,26.08
2023-03-01T02:57:47.440Z,29.58
2023-03-01T03:00:24.526Z,26.23
2023-03-01T03:02:57.898Z,26.60
2023-03-01T03:05:30.085Z,24.65
2023-03-01T03:08:01.194Z,29.50
2023-03-01T03:10:33.241Z,28.98
2023-03-01T03:13:05.045Z,29.48
2023-03-01T03:15:39.437Z,28.15
2023-03-01T03:18:13.593Z,27.85
2023-03-01T03:20:44.871Z,29.60
2023-03-01T03:23:15.524Z,27.40
2023-03-01T03:25:45.260Z,28.25
2023-03-01T03:28:16.890Z,28.10
2023-03-01T03:30:50.921Z,29.38
2023-03-01T03:33:20.768Z,27.73
2023-03-01T03:35:52.582Z,27.27
2023-03-01T03:38:23.685Z,29.85
2023-03-01T03:40:55.571Z,25.98
2023-03-01T03:43:26.572Z,27.83
2023-03-01T03:46:00.583Z,24.92
2023-03-01T03:48:31.075Z,26.27
2023-03-01T03:51:00.851Z,29.20
2023-03-01T03:53:32.576Z,30.05
2023-03-01T03:56:02.532Z,28.92
2023-03-01T03:58:33.150Z,25.63
2023-03-01T04:01:06.316Z,25.70
2023-03-01T04:03:36.887Z,26.00
2023-03-01T04:06:07.677Z,26.50
2023-03-01T04:08:37.547Z,25.08
2023-03-01T04:11:21.108Z,31.15
2023-03-01T04:13:51.014Z,28.20
2023-03-01T04:16:23.756Z,26.33
2023-03-01T04:18:54.513Z,24.48
2023-03-01T04:21:24.842Z,28.45
2023-03-01T04:23:54.991Z,26.48
2023-03-01T04:26:24.843Z,27.20
2023-03-01T04:28:54.578Z,28.67
2023-03-01T04:31:26.991Z,27.52
2023-03-01T04:33:58.797Z,26.85
2023-03-01T04:36:31.265Z,28.60
2023-03-01T04:39:13.044Z,27.75
2023-03-01T04:41:44.705Z,29.88
2023-03-01T04:44:14.607Z,30.83
2023-03-01T04:46:47.216Z,28.33
2023-03-01T04:49:17.013Z,27.85
2023-03-01T04:51:46.819Z,27.90
2023-03-01T04:54:17.347Z,29.73
2023-03-01T04:56:47.122Z,27.08
2023-03-01T04:59:16.914Z,29.00
2023-03-01T05:01:49.281Z,28.30
2023-03-01T05:04:19.339Z,27.00
2023-03-01T05:06:49.131Z,29.02
2023-03-01T05:09:18.978Z,26.65
2023-03-01T05:11:49.038Z,28.67
2023-03-01T05:14:18.928Z,30.80
2023-03-01T05:16:51.340Z,30.98
2023-03-01T05:19:23.654Z,32.90
2023-03-01T05:22:06.042Z,26.23
2023-03-01T05:24:37.899Z,27.40
2023-03-01T05:27:07.677Z,31.23
2023-03-01T05:29:37.477Z,24.60
2023-03-01T05:32:10.101Z,32.20
2023-03-01T05:34:40.400Z,27.40
2023-03-01T05:37:10.615Z,28.40
2023-03-01T05:39:40.598Z,29.48
2023-03-01T05:42:11.733Z,26.42
2023-03-01T05:44:41.763Z,30.90
2023-03-01T05:47:14.231Z,24.92
2023-03-01T05:49:43.970Z,27.65
2023-03-01T05:52:13.778Z,28.60
2023-03-01T05:54:43.543Z,33.90
2023-03-01T05:57:13.323Z,24.10
2023-03-01T05:59:43.096Z,26.58
2023-03-01T06:02:15.454Z,31.52
2023-03-01T06:04:45.414Z,27.98
2023-03-01T06:07:15.273Z,28.77
2023-03-01T06:09:45.384Z,28.73
2023-03-01T06:12:15.167Z,28.85
2023-03-01T06:14:44.870Z,31.52
2023-03-01T06:17:17.495Z,33.58
2023-03-01T06:19:47.255Z,32.00
2023-03-01T06:22:17.021Z,31.88
2023-03-01T06:24:46.839Z,32.28
2023-03-01T06:27:16.637Z,33.15
2023-03-01T06:29:46.552Z,30.02
2023-03-01T06:32:19.591Z,26.40
2023-03-01T06:34:49.443Z,32.85
2023-03-01T06:37:19.237Z,29.27
2023-03-01T06:39:49.088Z,27.52
2023-03-01T06:42:18.898Z,32.38
2023-03-01T06:44:49.354Z,30.65
2023-03-01T06:47:21.844Z,31.05
2023-03-01T06:49:51.617Z,30.63
2023-03-01T06:52:21.363Z,32.60
2023-03-01T06:54:51.219Z,28.83
2023-03-01T06:57:21.038Z,29.35
2023-03-01T06:59:51.143Z,29.70
2023-03-01T07:02:23.620Z,28.77
2023-03-01T07:04:53.505Z,34.20
2023-03-01T07:07:23.501Z,35.83
2023-03-01T07:09:54.261Z,33.42
2023-03-01T07:12:24.078Z,33.58
2023-03-01T07:14:55.564Z,36.97
2023-03-01T07:17:28.263Z,36.22
2023-03-01T07:19:58.053Z,40.63
2023-03-01T07:22:27.842Z,31.38
2023-03-01T07:24:57.675Z,35.20
2023-03-01T07:27:27.480Z,33.40
2023-03-01T07:29:57.200Z,34.53
2023-03-01T07:32:29.702Z,34.38
2023-03-01T07:34:59.681Z,30.35
2023-03-01T07:37:29.561Z,33.00
2023-03-01T07:39:59.597Z,33.38
2023-03-01T07:42:29.385Z,30.05
2023-03-01T07:44:59.164Z,34.60
2023-03-01T07:47:31.747Z,35.17
2023-03-01T07:50:02.212Z,33.28
2023-03-01T07:52:32.104Z,29.75
2023-03-01T07:55:01.887Z,34.65
2023-03-01T07:57:32.507Z,36.50
2023-03-01T08:00:02.328Z,30.13
2023-03-01T08:02:34.983Z,31.77
2023-03-01T08:05:04.782Z,30.75
2023-03-01T08:07:34.539Z,32.22
2023-03-01T08:10:04.268Z,34.58
2023-03-01T08:12:34.059Z,39.72
2023-03-01T08:15:03.775Z,32.88
2023-03-01T08:17:36.087Z,35.05
2023-03-01T08:20:07.983Z,34.13
2023-03-01T08:22:38.077Z,33.15
2023-03-01T08:25:08.790Z,31.00
2023-03-01T08:27:38.550Z,31.33
2023-03-01T08:30:10.024Z,35.55
2023-03-01T08:32:43.786Z,32.15
2023-03-01T08:35:13.643Z,37.80
2023-03-01T08:37:43.463Z,32.05
2023-03-01T08:40:15.097Z,31.77
2023-03-01T08:42:46.843Z,33.95
2023-03-01T08:45:19.222Z,28.40
2023-03-01T08:47:51.720Z,36.13
2023-03-01T08:50:21.626Z,32.42
2023-03-01T08:52:51.396Z,29.73
2023-03-01T08:55:21.195Z,32.42
2023-03-01T08:57:50.915Z,30.58
2023-03-01T09:00:21.889Z,30.30
2023-03-01T09:02:55.432Z,33.13
2023-03-01T09:05:25.240Z,28.58
2023-03-01T09:07:55.057Z,29.85
2023-03-01T09:10:24.875Z,32.05
2023-03-01T09:12:55.355Z,29.27
2023-03-01T09:15:25.147Z,33.10
2023-03-01T09:17:57.530Z,29.67
2023-03-01T09:20:27.257Z,32.50
2023-03-01T09:22:56.999Z,31.77
2023-03-01T09:25:26.887Z,31.05
2023-03-01T09:27:57.240Z,33.47
2023-03-01T09:30:27.162Z,32.95
2023-03-01T09:33:00.471Z,29.45
2023-03-01T09:35:30.290Z,31.23
2023-03-01T09:38:00.078Z,28.30
2023-03-01T09:40:31.960Z,28.85
2023-03-01T09:43:12.281Z,30.48
2023-03-01T09:45:44.863Z,29.40
2023-03-01T09:48:23.105Z,31.17
2023-03-01T09:50:54.122Z,30.85
2023-03-01T09:53:26.697Z,30.75
2023-03-01T09:56:02.681Z,28.85
2023-03-01T09:58:45.204Z,31.17
2023-03-01T10:01:32.839Z,32.08
2023-03-01T10:04:27.675Z,32.75
2023-03-01T10:07:09.481Z,28.83
2023-03-01T10:09:41.765Z,29.15
2023-03-01T10:12:14.285Z,28.08
2023-03-01T10:14:54.742Z,28.38
2023-03-01T10:17:37.815Z,27.90
2023-03-01T10:20:27.458Z,26.40
2023-03-01T10:22:57.608Z,26.40
2023-03-01T10:25:43.703Z,28.08
2023-03-01T10:28:20.969Z,25.05
2023-03-01T10:30:50.993Z,30.33
2023-03-01T10:33:25.584Z,27.48
2023-03-01T10:35:58.235Z,29.30
2023-03-01T10:38:30.558Z,26.15
2023-03-01T10:41:02.755Z,26.67
2023-03-01T10:43:46.851Z,27.45
2023-03-01T10:46:28.048Z,30.65
2023-03-01T10:49:15.789Z,27.42
2023-03-01T10:51:49.812Z,26.02
2023-03-01T10:54:22.393Z,27.70
2023-03-01T10:56:54.699Z,27.00
2023-03-01T10:59:30.487Z,30.10
2023-03-01T11:02:25.128Z,27.05
2023-03-01T11:05:03.883Z,32.08
2023-03-01T11:07:51.155Z,25.33
2023-03-01T11:10:25.768Z,24.92
2023-03-01T11:12:56.671Z,27.20
2023-03-01T11:15:29.935Z,28.50
2023-03-01T11:18:13.409Z,25.65
2023-03-01T11:20:44.963Z,25.45
2023-03-01T11:23:19.011Z,25.15
2023-03-01T11:25:55.362Z,27.27
2023-03-01T11:28:27.380Z,25.90
2023-03-01T11:31:08.681Z,26.92
2023-03-01T11:33:47.411Z,24.88
2023-03-01T11:36:30.456Z,28.83
2023-03-01T11:39:07.225Z,31.30
2023-03-01T11:41:40.208Z,26.60
2023-03-01T11:44:17.624Z,27.05
2023-03-01T11:47:19.175Z,26.75
2023-03-01T11:50:08.590Z,23.52
2023-03-01T11:52:50.701Z,25.67
2023-03-01T11:55:35.712Z,26.63
2023-03-01T12:01:16.438Z,26.60
2023-03-01T12:04:07.892Z,26.02
2023-03-01T12:06:51.083Z,29.25
2023-03-01T12:09:50.680Z,25.10
2023-03-01T12:12:41.460Z,26.38
2023-03-01T12:15:43.698Z,27.95
2023-03-01T12:18:37.848Z,23.70
2023-03-01T12:21:17.795Z,23.80
2023-03-01T12:24:18.593Z,24.88
2023-03-01T12:27:01.303Z,24.25
2023-03-01T12:29:42.459Z,26.67
2023-03-01T12:32:24.032Z,24.13
2023-03-01T12:35:07.316Z,24.15
2023-03-01T12:37:53.905Z,31.10
2023-03-01T12:40:40.512Z,22.30
2023-03-01T12:43:22.526Z,26.30
2023-03-01T12:46:08.662Z,25.65
2023-03-01T12:48:49.361Z,24.23
2023-03-01T12:51:24.472Z,24.27
2023-03-01T12:53:57.119Z,23.83
2023-03-01T12:56:30.310Z,29.55
2023-03-01T12:59:06.783Z,27.73
2023-03-01T13:01:49.230Z,24.45
2023-03-01T13:04:29.744Z,24.33
2023-03-01T13:07:19.851Z,24.75
2023-03-01T13:10:02.480Z,20.05
2023-03-01T13:12:56.294Z,22.23
2023-03-01T13:15:40.506Z,20.70
2023-03-01T13:18:35.480Z,24.88
2023-03-01T13:21:07.208Z,24.80
2023-03-01T13:23:39.854Z,23.75
2023-03-01T13:26:15.853Z,23.73
2023-03-01T13:28:52.335Z,23.75
2023-03-01T13:32:09.514Z,26.92
2023-03-01T13:34:56.201Z,24.77
2023-03-01T13:37:41.204Z,24.10
2023-03-01T13:40:41.122Z,22.88
2023-03-01T13:43:33.547Z,25.75
2023-03-01T13:46:05.281Z,22.42
2023-03-01T13:48:36.759Z,24.75
2023-03-01T13:51:12.418Z,27.83
2023-03-01T13:53:46.369Z,24.13
2023-03-01T13:56:20.148Z,24.15
2023-03-01T13:58:56.168Z,39.47
2023-03-01T14:01:32.779Z,25.88
2023-03-01T14:04:03.539Z,25.98
2023-03-01T14:06:37.538Z,23.75
2023-03-01T14:09:14.628Z,24.63
2023-03-01T14:12:17.444Z,26.23
2023-03-01T14:14:56.364Z,25.95
2023-03-01T14:18:07.933Z,22.70
2023-03-01T14:20:43.972Z,25.58
2023-03-01T14:23:21.044Z,22.48
2023-03-01T14:25:52.510Z,25.08
2023-03-01T14:28:25.399Z,25.52
2023-03-01T14:30:56.722Z,29.98
2023-03-01T14:33:28.455Z,26.92
2023-03-01T14:36:01.275Z,25.77
2023-03-01T14:38:39.122Z,25.40
2023-03-01T14:41:12.230Z,25.83
2023-03-01T14:43:45.007Z,24.48
2023-03-01T14:46:23.361Z,23.85
2023-03-01T14:48:54.758Z,25.02
2023-03-01T14:51:24.779Z,26.35
2023-03-01T14:53:57.921Z,23.23
2023-03-01T14:56:27.719Z,25.23
2023-03-01T14:59:02.185Z,25.45
2023-03-01T15:01:32.452Z,23.98
2023-03-01T15:04:02.519Z,27.55
2023-03-01T15:06:32.595Z,26.08
2023-03-01T15:09:05.254Z,26.83
2023-03-01T15:11:38.014Z,26.67
2023-03-01T15:14:30.110Z,29.13
2023-03-01T15:17:00.291Z,26.33
2023-03-01T15:19:31.967Z,27.95
2023-03-01T15:22:13.062Z,30.65
2023-03-01T15:24:49.933Z,27.70
2023-03-01T15:27:21.896Z,28.08
2023-03-01T15:29:54.238Z,27.92
2023-03-01T15:32:32.282Z,27.20
2023-03-01T15:35:02.872Z,25.05
2023-03-01T15:37:44.567Z,25.10
2023-03-01T15:40:32.604Z,24.40
2023-03-01T15:43:02.878Z,22.77
2023-03-01T15:45:35.034Z,25.23
2023-03-01T15:48:07.045Z,23.70
2023-03-01T15:50:41.037Z,22.58
2023-03-01T15:53:15.412Z,23.80
2023-03-01T15:58:24.154Z,25.85
2023-03-01T16:01:02.054Z,25.00
2023-03-01T16:03:32.781Z,23.48
2023-03-01T16:06:02.629Z,24.80
2023-03-01T16:08:32.743Z,25.35
2023-03-01T16:11:06.932Z,25.80
2023-03-01T16:13:36.729Z,27.10
2023-03-01T16:16:07.172Z,23.60
2023-03-01T16:18:36.981Z,21.45
2023-03-01T16:21:07.333Z,25.92
2023-03-01T16:23:37.135Z,22.70
2023-03-01T16:26:09.579Z,22.98
2023-03-01T16:28:39.409Z,27.38
2023-03-01T16:31:09.279Z,25.60
2023-03-01T16:33:40.438Z,27.23
2023-03-01T16:36:11.994Z,26.55
2023-03-01T16:38:42.394Z,23.58
2023-03-01T16:41:16.966Z,23.13
2023-03-01T16:46:19.825Z,23.83
2023-03-01T16:48:50.634Z,24.05
2023-03-01T16:51:20.983Z,26.10
2023-03-01T16:53:50.953Z,22.85
2023-03-01T16:56:23.574Z,23.33
2023-03-01T16:58:53.326Z,28.88
2023-03-01T17:01:25.331Z,22.30
2023-03-01T17:03:56.159Z,26.73
2023-03-01T17:06:27.620Z,24.33
2023-03-01T17:08:57.529Z,24.65
2023-03-01T17:11:30.297Z,28.75
2023-03-01T17:14:00.299Z,26.35
2023-03-01T17:16:30.401Z,23.98
2023-03-01T17:19:00.255Z,26.13
2023-03-01T17:21:31.713Z,25.77
2023-03-01T17:24:02.073Z,26.85
2023-03-01T17:26:34.407Z,21.42
2023-03-01T17:29:05.262Z,25.15
2023-03-01T17:31:36.129Z,23.27
2023-03-01T17:34:05.976Z,26.30
2023-03-01T17:36:41.685Z,24.48
2023-03-01T17:39:11.476Z,24.42
2023-03-01T17:41:43.817Z,25.58
2023-03-01T17:44:13.560Z,24.98
2023-03-01T17:46:43.326Z,26.33
2023-03-01T17:49:13.123Z,25.90
2023-03-01T17:51:42.907Z,26.75
2023-03-01T17:54:12.776Z,25.90
2023-03-01T17:56:46.384Z,23.05
2023-03-01T17:59:17.683Z,26.55
2023-03-01T18:01:47.711Z,26.80
2023-03-01T18:04:18.453Z,24.15
2023-03-01T18:06:48.319Z,25.90
2023-03-01T18:09:18.071Z,29.38
2023-03-01T18:11:53.878Z,26.15
2023-03-01T18:14:23.641Z,24.50
2023-03-01T18:16:56.253Z,25.70
2023-03-01T18:19:26.102Z,31.15
2023-03-01T18:21:55.874Z,27.15
2023-03-01T18:24:25.841Z,27.63
2023-03-01T18:26:58.171Z,26.50
2023-03-01T18:29:28.352Z,27.27
2023-03-01T18:31:58.189Z,29.60
2023-03-01T18:34:28.749Z,28.10
2023-03-01T18:37:09.325Z,29.05
2023-03-01T18:39:41.649Z,30.15
2023-03-01T18:42:16.346Z,32.17
2023-03-01T18:47:17.021Z,26.65
2023-03-01T18:49:46.895Z,27.48
2023-03-01T18:52:16.787Z,29.73
2023-03-01T18:54:46.548Z,22.23
2023-03-01T18:57:19.139Z,29.95
2023-03-01T18:59:48.906Z,24.23
2023-03-01T19:02:18.798Z,29.15
2023-03-01T19:04:48.558Z,28.63
2023-03-01T19:07:18.292Z,26.98
2023-03-01T19:09:48.071Z,29.30
2023-03-01T19:12:20.460Z,29.33
2023-03-01T19:14:51.270Z,29.42
2023-03-01T19:17:21.392Z,30.92
2023-03-01T19:19:51.366Z,28.60
2023-03-01T19:22:21.147Z,24.63
2023-03-01T19:24:50.910Z,26.98
2023-03-01T19:27:23.269Z,30.38
2023-03-01T19:29:53.019Z,28.42
2023-03-01T19:32:22.927Z,30.27
2023-03-01T19:34:52.665Z,27.73
2023-03-01T19:37:23.853Z,28.70
2023-03-01T19:39:53.600Z,31.30
2023-03-01T19:42:27.402Z,27.60
2023-03-01T19:44:57.323Z,33.08
2023-03-01T19:47:27.100Z,26.30
2023-03-01T19:49:57.158Z,30.42
2023-03-01T19:52:26.875Z,31.23
2023-03-01T19:55:07.411Z,28.83
2023-03-01T19:57:42.089Z,33.63
2023-03-01T20:00:13.395Z,30.13
2023-03-01T20:02:43.158Z,25.75
2023-03-01T20:05:13.146Z,27.63
2023-03-01T20:07:44.539Z,31.52
2023-03-01T20:10:15.589Z,30.13
2023-03-01T20:12:47.945Z,30.25
2023-03-01T20:15:17.767Z,28.95
2023-03-01T20:17:47.590Z,30.70
2023-03-01T20:20:17.978Z,30.02
2023-03-01T20:22:47.815Z,35.53
2023-03-01T20:25:17.601Z,28.70
2023-03-01T20:27:51.755Z,31.35
2023-03-01T20:30:21.513Z,30.00
2023-03-01T20:32:51.236Z,30.95
2023-03-01T20:35:21.734Z,29.55
2023-03-01T20:37:54.241Z,27.42
2023-03-01T20:40:26.966Z,30.33
2023-03-01T20:42:59.717Z,28.40
2023-03-01T20:45:29.814Z,28.60
2023-03-01T20:47:59.608Z,31.98
2023-03-01T20:50:29.461Z,30.58
2023-03-01T20:52:59.373Z,29.50
2023-03-01T20:55:29.155Z,31.17
2023-03-01T20:58:01.731Z,34.03
2023-03-01T21:00:31.652Z,29.02
2023-03-01T21:03:01.482Z,30.73
2023-03-01T21:05:32.578Z,29.77
2023-03-01T21:08:02.982Z,32.20
2023-03-01T21:10:33.526Z,36.40
2023-03-01T21:13:05.848Z,28.75
2023-03-01T21:15:35.599Z,30.35
2023-03-01T21:18:05.426Z,29.38
2023-03-01T21:20:42.770Z,30.90
2023-03-01T21:23:12.501Z,32.33
2023-03-01T21:25:42.514Z,32.95
2023-03-01T21:28:14.872Z,30.30
2023-03-01T21:30:44.600Z,33.15
2023-03-01T21:33:14.342Z,34.92
2023-03-01T21:35:44.156Z,30.25
2023-03-01T21:38:14.134Z,34.58
2023-03-01T21:40:43.942Z,33.63
2023-03-01T21:43:16.248Z,30.75
2023-03-01T21:45:46.038Z,34.50
2023-03-01T21:48:15.798Z,33.50
2023-03-01T21:50:45.533Z,31.75
2023-03-01T21:53:15.300Z,31.55
2023-03-01T21:55:51.302Z,33.22
2023-03-01T21:58:25.639Z,32.58
2023-03-01T22:00:55.397Z,36.85
2023-03-01T22:03:25.994Z,38.40
2023-03-01T22:05:58.972Z,31.55
2023-03-01T22:08:29.287Z,34.75
2023-03-01T22:10:59.041Z,32.17
2023-03-01T22:13:31.461Z,31.40
2023-03-01T22:16:03.161Z,31.95
2023-03-01T22:18:32.926Z,33.33
2023-03-01T22:21:06.764Z,32.63
2023-03-01T22:23:37.571Z,35.65
2023-03-01T22:26:07.626Z,38.20
2023-03-01T22:28:40.009Z,32.42
2023-03-01T22:31:09.825Z,31.42
2023-03-01T22:33:39.659Z,34.03
2023-03-01T22:36:10.455Z,30.23
2023-03-01T22:38:41.750Z,31.27
2023-03-01T22:41:12.449Z,34.03
2023-03-01T22:43:45.018Z,38.58
2023-03-01T22:46:16.641Z,31.77
2023-03-01T22:48:47.133Z,32.40
2023-03-01T22:51:17.754Z,32.20
2023-03-01T22:53:47.668Z,33.47
2023-03-01T22:56:19.764Z,29.20
2023-03-01T22:58:52.260Z,33.00
2023-03-01T23:01:23.978Z,36.17
2023-03-01T23:03:54.230Z,30.55
2023-03-01T23:06:25.694Z,32.88
2023-03-01T23:08:57.391Z,34.53
2023-03-01T23:11:29.412Z,31.80
2023-03-01T23:14:02.431Z,33.95
2023-03-01T23:16:32.684Z,33.65
2023-03-01T23:19:04.773Z,29.92
2023-03-01T23:21:35.875Z,33.90
2023-03-01T23:24:06.121Z,35.88
2023-03-01T23:26:35.894Z,36.75
2023-03-01T23:29:08.421Z,32.83
2023-03-01T23:31:38.813Z,36.20
2023-03-01T23:34:08.621Z,33.80
2023-03-01T23:36:44.792Z,39.88
2023-03-01T23:39:15.983Z,36.33
2023-03-01T23:41:45.848Z,37.97
2023-03-01T23:44:20.474Z,38.03
2023-03-01T23:46:51.473Z,34.83
2023-03-01T23:49:23.271Z,33.85
2023-03-01T23:51:53.396Z,36.05
2023-03-01T23:54:25.505Z,32.95
2023-03-01T23:56:55.331Z,34.65
2023-03-01T23:59:27.779Z,36.50
